< < Back
Terminal Aerodrome Forecast


Current Version              Previous Versions:   1  2  3  4  5  6  7  8  9  

Terminal Aerodrome Forecast

740
FTUS44 KBMX 090523
TAFTCL
TAF
KTCL 090523Z 0906/1006 29009KT P6SM OVC050
     FM091500 29012G18KT P6SM OVC050
     FM100100 31007KT P6SM SKC=

Latest METAR

583
SAUS70 KWBC 091756
MTRTCL
METAR KTCL 091753Z 29016G24KT 10SM SCT065 06/M11 A2999 RMK AO2 PK WND
30026/1725 SLP154 T00561106 10056 20011 58004


USA.gov is the U.S. government's official web portal to all federal, state and local government web resources and services.